sensor_id;sensor_type;location;lat;lon;timestamp;pressure;altitude;pressure_sealevel;temperature;humidity
15932;BME280;8065;49.520;11.284;2022-10-12T00:01:04;98238.66;;;13.85;92.83
15932;BME280;8065;49.520;11.284;2022-10-12T00:03:31;98232.06;;;13.83;93.00
15932;BME280;8065;49.520;11.284;2022-10-12T00:06:03;98235.06;;;13.81;93.54
15932;BME280;8065;49.520;11.284;2022-10-12T00:08:31;98235.91;;;14.02;92.63
15932;BME280;8065;49.520;11.284;2022-10-12T00:10:59;98238.47;;;13.90;92.99
15932;BME280;8065;49.520;11.284;2022-10-12T00:13:25;98236.00;;;13.85;93.38
15932;BME280;8065;49.520;11.284;2022-10-12T00:15:52;98236.53;;;13.99;92.64
15932;BME280;8065;49.520;11.284;2022-10-12T00:18:19;98230.56;;;14.32;91.60
15932;BME280;8065;49.520;11.284;2022-10-12T00:20:45;98233.44;;;14.27;91.03
15932;BME280;8065;49.520;11.284;2022-10-12T00:23:12;98228.41;;;14.25;91.43
15932;BME280;8065;49.520;11.284;2022-10-12T00:25:40;98223.00;;;14.04;91.44
15932;BME280;8065;49.520;11.284;2022-10-12T00:28:08;98221.88;;;13.76;93.25
15932;BME280;8065;49.520;11.284;2022-10-12T00:30:38;98223.50;;;13.60;93.41
15932;BME280;8065;49.520;11.284;2022-10-12T00:33:04;98225.72;;;13.58;93.46
15932;BME280;8065;49.520;11.284;2022-10-12T00:35:31;98225.06;;;13.61;93.55
15932;BME280;8065;49.520;11.284;2022-10-12T00:37:57;98221.78;;;13.55;94.33
15932;BME280;8065;49.520;11.284;2022-10-12T00:40:23;98225.06;;;13.61;93.96
15932;BME280;8065;49.520;11.284;2022-10-12T00:42:50;98224.44;;;13.64;93.43
15932;BME280;8065;49.520;11.284;2022-10-12T00:45:18;98230.56;;;13.64;93.63
15932;BME280;8065;49.520;11.284;2022-10-12T00:47:47;98226.63;;;13.62;93.62
15932;BME280;8065;49.520;11.284;2022-10-12T00:50:18;98233.53;;;13.63;93.04
15932;BME280;8065;49.520;11.284;2022-10-12T00:52:50;98239.53;;;13.60;93.74
15932;BME280;8065;49.520;11.284;2022-10-12T00:55:20;98230.06;;;13.71;92.62
15932;BME280;8065;49.520;11.284;2022-10-12T00:57:48;98237.44;;;13.74;92.69
15932;BME280;8065;49.520;11.284;2022-10-12T01:00:19;98230.34;;;13.78;92.44
15932;BME280;8065;49.520;11.284;2022-10-12T01:02:47;98230.84;;;13.71;92.66
15932;BME280;8065;49.520;11.284;2022-10-12T01:05:15;98233.56;;;13.54;93.33
15932;BME280;8065;49.520;11.284;2022-10-12T01:07:42;98232.94;;;13.49;93.75
15932;BME280;8065;49.520;11.284;2022-10-12T01:10:09;98228.38;;;13.58;93.70
15932;BME280;8065;49.520;11.284;2022-10-12T01:12:36;98230.13;;;13.54;93.67
15932;BME280;8065;49.520;11.284;2022-10-12T01:15:06;98223.66;;;13.55;93.68
15932;BME280;8065;49.520;11.284;2022-10-12T01:17:41;98224.13;;;13.57;93.37
15932;BME280;8065;49.520;11.284;2022-10-12T01:20:27;98223.34;;;13.56;93.69
15932;BME280;8065;49.520;11.284;2022-10-12T01:23:09;98225.06;;;13.61;93.38
15932;BME280;8065;49.520;11.284;2022-10-12T01:25:51;98221.47;;;13.57;93.38
15932;BME280;8065;49.520;11.284;2022-10-12T01:28:26;98209.38;;;13.51;93.28
15932;BME280;8065;49.520;11.284;2022-10-12T01:31:03;98210.97;;;13.52;93.11
15932;BME280;8065;49.520;11.284;2022-10-12T01:33:36;98211.59;;;13.40;94.06
15932;BME280;8065;49.520;11.284;2022-10-12T01:36:09;98219.31;;;13.41;93.69
15932;BME280;8065;49.520;11.284;2022-10-12T01:38:44;98219.78;;;13.43;93.97
15932;BME280;8065;49.520;11.284;2022-10-12T01:41:17;98219.91;;;13.47;93.39
15932;BME280;8065;49.520;11.284;2022-10-12T01:43:45;98221.19;;;13.41;94.23
15932;BME280;8065;49.520;11.284;2022-10-12T01:49:19;98208.75;;;13.54;93.29
15932;BME280;8065;49.520;11.284;2022-10-12T01:51:57;98212.03;;;13.59;93.17
15932;BME280;8065;49.520;11.284;2022-10-12T01:54:29;98213.31;;;13.53;93.39
15932;BME280;8065;49.520;11.284;2022-10-12T01:57:03;98217.13;;;13.35;93.38
15932;BME280;8065;49.520;11.284;2022-10-12T01:59:40;98214.00;;;13.24;94.55
15932;BME280;8065;49.520;11.284;2022-10-12T02:02:14;98213.66;;;13.43;93.88
15932;BME280;8065;49.520;11.284;2022-10-12T02:04:47;98209.91;;;13.35;93.76
15932;BME280;8065;49.520;11.284;2022-10-12T02:07:19;98207.19;;;13.53;93.25
15932;BME280;8065;49.520;11.284;2022-10-12T02:09:50;98202.47;;;13.50;93.05
15932;BME280;8065;49.520;11.284;2022-10-12T02:12:21;98207.97;;;13.53;93.68
15932;BME280;8065;49.520;11.284;2022-10-12T02:14:51;98202.78;;;13.57;93.06
15932;BME280;8065;49.520;11.284;2022-10-12T02:17:20;98199.78;;;13.58;93.42
15932;BME280;8065;49.520;11.284;2022-10-12T02:19:52;98205.16;;;13.50;94.05
15932;BME280;8065;49.520;11.284;2022-10-12T02:22:20;98212.56;;;13.35;94.63
15932;BME280;8065;49.520;11.284;2022-10-12T02:24:50;98201.88;;;13.35;93.86
15932;BME280;8065;49.520;11.284;2022-10-12T02:27:19;98206.44;;;13.35;94.23
15932;BME280;8065;49.520;11.284;2022-10-12T02:29:47;98204.56;;;13.35;94.37
15932;BME280;8065;49.520;11.284;2022-10-12T02:32:18;98197.13;;;13.50;93.56
15932;BME280;8065;49.520;11.284;2022-10-12T02:34:51;98199.47;;;13.60;93.29
15932;BME280;8065;49.520;11.284;2022-10-12T02:37:25;98200.22;;;13.69;93.15
15932;BME280;8065;49.520;11.284;2022-10-12T02:39:55;98192.69;;;13.71;92.50
15932;BME280;8065;49.520;11.284;2022-10-12T02:42:27;98193.66;;;13.58;92.92
15932;BME280;8065;49.520;11.284;2022-10-12T02:44:56;98190.72;;;13.42;93.38
15932;BME280;8065;49.520;11.284;2022-10-12T02:47:26;98185.41;;;13.33;94.60
15932;BME280;8065;49.520;11.284;2022-10-12T02:49:56;98184.59;;;13.41;93.84
15932;BME280;8065;49.520;11.284;2022-10-12T02:52:23;98182.22;;;13.49;93.46
15932;BME280;8065;49.520;11.284;2022-10-12T02:54:50;98181.75;;;13.47;93.88
15932;BME280;8065;49.520;11.284;2022-10-12T02:57:17;98180.94;;;13.55;93.78
15932;BME280;8065;49.520;11.284;2022-10-12T02:59:43;98184.44;;;13.47;94.24
15932;BME280;8065;49.520;11.284;2022-10-12T03:02:10;98179.22;;;13.59;93.26
15932;BME280;8065;49.520;11.284;2022-10-12T03:04:37;98178.75;;;13.57;93.84
15932;BME280;8065;49.520;11.284;2022-10-12T03:07:04;98180.13;;;13.63;93.71
15932;BME280;8065;49.520;11.284;2022-10-12T03:09:31;98182.47;;;13.64;93.42
15932;BME280;8065;49.520;11.284;2022-10-12T03:11:57;98181.53;;;13.69;93.42
15932;BME280;8065;49.520;11.284;2022-10-12T03:14:24;98183.72;;;13.67;93.47
15932;BME280;8065;49.520;11.284;2022-10-12T03:16:51;98184.97;;;13.69;92.34
15932;BME280;8065;49.520;11.284;2022-10-12T03:19:17;98183.44;;;13.60;92.96
15932;BME280;8065;49.520;11.284;2022-10-12T03:21:44;98182.06;;;13.54;93.01
15932;BME280;8065;49.520;11.284;2022-10-12T03:24:12;98188.19;;;13.54;93.63
15932;BME280;8065;49.520;11.284;2022-10-12T03:26:38;98183.28;;;13.65;92.88
15932;BME280;8065;49.520;11.284;2022-10-12T03:29:05;98194.88;;;13.69;92.31
15932;BME280;8065;49.520;11.284;2022-10-12T03:31:33;98189.53;;;13.69;92.44
15932;BME280;8065;49.520;11.284;2022-10-12T03:33:59;98190.31;;;13.69;91.89
15932;BME280;8065;49.520;11.284;2022-10-12T03:36:26;98194.41;;;13.67;91.97
15932;BME280;8065;49.520;11.284;2022-10-12T03:38:52;98199.94;;;13.62;91.65
15932;BME280;8065;49.520;11.284;2022-10-12T03:41:20;98195.53;;;13.66;91.90
15932;BME280;8065;49.520;11.284;2022-10-12T03:43:47;98190.00;;;13.71;91.64
15932;BME280;8065;49.520;11.284;2022-10-12T03:46:13;98187.19;;;13.67;91.41
15932;BME280;8065;49.520;11.284;2022-10-12T03:48:39;98194.00;;;13.48;91.95
15932;BME280;8065;49.520;11.284;2022-10-12T03:51:06;98188.38;;;13.32;92.05
15932;BME280;8065;49.520;11.284;2022-10-12T03:53:33;98188.56;;;13.27;92.18
15932;BME280;8065;49.520;11.284;2022-10-12T03:55:59;98184.47;;;13.29;92.04
15932;BME280;8065;49.520;11.284;2022-10-12T03:58:27;98189.03;;;13.20;91.60
15932;BME280;8065;49.520;11.284;2022-10-12T04:00:54;98186.69;;;13.19;91.89
15932;BME280;8065;49.520;11.284;2022-10-12T04:03:20;98186.84;;;13.05;92.17
15932;BME280;8065;49.520;11.284;2022-10-12T04:05:51;98190.44;;;13.09;92.19
15932;BME280;8065;49.520;11.284;2022-10-12T04:08:18;98192.00;;;13.10;91.52
15932;BME280;8065;49.520;11.284;2022-10-12T04:10:45;98194.22;;;13.17;91.29
15932;BME280;8065;49.520;11.284;2022-10-12T04:13:12;98195.47;;;13.10;90.95
15932;BME280;8065;49.520;11.284;2022-10-12T04:15:39;98198.13;;;13.10;91.39
15932;BME280;8065;49.520;11.284;2022-10-12T04:18:06;98197.03;;;13.03;91.21
15932;BME280;8065;49.520;11.284;2022-10-12T04:20:32;98195.19;;;12.95;91.04
15932;BME280;8065;49.520;11.284;2022-10-12T04:22:59;98199.41;;;12.78;91.54
15932;BME280;8065;49.520;11.284;2022-10-12T04:25:25;98198.47;;;12.74;92.05
15932;BME280;8065;49.520;11.284;2022-10-12T04:27:52;98195.34;;;12.55;91.96
15932;BME280;8065;49.520;11.284;2022-10-12T04:30:18;98201.75;;;12.45;92.46
15932;BME280;8065;49.520;11.284;2022-10-12T04:32:46;98204.88;;;12.47;91.78
15932;BME280;8065;49.520;11.284;2022-10-12T04:35:12;98207.50;;;12.22;92.89
15932;BME280;8065;49.520;11.284;2022-10-12T04:37:39;98203.59;;;12.28;93.09
15932;BME280;8065;49.520;11.284;2022-10-12T04:40:07;98209.03;;;12.05;93.76
15932;BME280;8065;49.520;11.284;2022-10-12T04:42:33;98207.00;;;11.40;97.27
15932;BME280;8065;49.520;11.284;2022-10-12T04:45:00;98209.69;;;11.18;99.10
15932;BME280;8065;49.520;11.284;2022-10-12T04:47:26;98211.47;;;11.23;98.87
15932;BME280;8065;49.520;11.284;2022-10-12T04:49:54;98209.59;;;11.85;95.44
15932;BME280;8065;49.520;11.284;2022-10-12T04:52:21;98203.03;;;11.91;94.77
15932;BME280;8065;49.520;11.284;2022-10-12T04:54:47;98200.06;;;11.93;94.44
15932;BME280;8065;49.520;11.284;2022-10-12T04:57:14;98210.09;;;11.96;94.29
15932;BME280;8065;49.520;11.284;2022-10-12T04:59:40;98204.00;;;11.95;94.06
15932;BME280;8065;49.520;11.284;2022-10-12T05:02:07;98206.97;;;11.94;94.29
15932;BME280;8065;49.520;11.284;2022-10-12T05:04:33;98205.16;;;12.11;93.31
15932;BME280;8065;49.520;11.284;2022-10-12T05:07:01;98204.50;;;12.06;93.22
15932;BME280;8065;49.520;11.284;2022-10-12T05:09:28;98206.53;;;12.00;93.63
15932;BME280;8065;49.520;11.284;2022-10-12T05:11:54;98210.91;;;11.96;93.65
15932;BME280;8065;49.520;11.284;2022-10-12T05:14:20;98209.94;;;11.92;93.44
15932;BME280;8065;49.520;11.284;2022-10-12T05:16:47;98207.41;;;11.87;93.43
15932;BME280;8065;49.520;11.284;2022-10-12T05:19:13;98212.13;;;11.90;93.75
15932;BME280;8065;49.520;11.284;2022-10-12T05:21:40;98208.97;;;11.88;93.42
15932;BME280;8065;49.520;11.284;2022-10-12T05:24:09;98217.78;;;11.97;93.27
15932;BME280;8065;49.520;11.284;2022-10-12T05:26:35;98216.25;;;12.05;92.93
15932;BME280;8065;49.520;11.284;2022-10-12T05:29:03;98214.22;;;12.02;92.92
15932;BME280;8065;49.520;11.284;2022-10-12T05:31:29;98214.03;;;11.98;93.22
15932;BME280;8065;49.520;11.284;2022-10-12T05:33:56;98217.34;;;12.04;93.11
15932;BME280;8065;49.520;11.284;2022-10-12T05:36:22;98212.84;;;12.13;92.57
15932;BME280;8065;49.520;11.284;2022-10-12T05:38:49;98216.41;;;12.08;93.10
15932;BME280;8065;49.520;11.284;2022-10-12T05:41:16;98214.03;;;11.98;93.77
15932;BME280;8065;49.520;11.284;2022-10-12T05:43:43;98218.75;;;12.01;93.73
15932;BME280;8065;49.520;11.284;2022-10-12T05:46:09;98222.03;;;11.98;94.71
15932;BME280;8065;49.520;11.284;2022-10-12T05:48:36;98222.22;;;12.10;93.90
15932;BME280;8065;49.520;11.284;2022-10-12T05:51:02;98213.75;;;12.08;94.42
15932;BME280;8065;49.520;11.284;2022-10-12T05:53:29;98217.19;;;12.00;95.71
15932;BME280;8065;49.520;11.284;2022-10-12T05:55:57;98226.44;;;12.03;95.60
15932;BME280;8065;49.520;11.284;2022-10-12T05:58:26;98219.69;;;12.05;95.53
15932;BME280;8065;49.520;11.284;2022-10-12T06:00:52;98228.16;;;12.07;95.43
15932;BME280;8065;49.520;11.284;2022-10-12T06:03:19;98228.97;;;12.08;95.33
15932;BME280;8065;49.520;11.284;2022-10-12T06:05:46;98227.06;;;12.17;95.12
15932;BME280;8065;49.520;11.284;2022-10-12T06:08:12;98235.75;;;12.40;93.92
15932;BME280;8065;49.520;11.284;2022-10-12T06:10:43;98225.56;;;12.42;93.88
15932;BME280;8065;49.520;11.284;2022-10-12T06:13:10;98230.75;;;12.47;93.93
15932;BME280;8065;49.520;11.284;2022-10-12T06:15:38;98231.41;;;12.53;94.17
15932;BME280;8065;49.520;11.284;2022-10-12T06:18:04;98238.59;;;12.52;94.43
15932;BME280;8065;49.520;11.284;2022-10-12T06:20:31;98232.81;;;12.50;94.50
15932;BME280;8065;49.520;11.284;2022-10-12T06:22:57;98238.63;;;12.69;93.62
15932;BME280;8065;49.520;11.284;2022-10-12T06:25:24;98243.97;;;12.69;93.80
15932;BME280;8065;49.520;11.284;2022-10-12T06:27:50;98237.38;;;12.75;93.94
15932;BME280;8065;49.520;11.284;2022-10-12T06:30:17;98239.75;;;12.86;93.29
15932;BME280;8065;49.520;11.284;2022-10-12T06:32:44;98243.34;;;13.07;92.54
15932;BME280;8065;49.520;11.284;2022-10-12T06:35:11;98241.59;;;13.02;92.33
15932;BME280;8065;49.520;11.284;2022-10-12T06:37:37;98243.19;;;12.95;93.47
15932;BME280;8065;49.520;11.284;2022-10-12T06:40:05;98242.09;;;12.96;93.80
15932;BME280;8065;49.520;11.284;2022-10-12T06:42:32;98244.59;;;13.01;93.67
15932;BME280;8065;49.520;11.284;2022-10-12T06:44:58;98245.53;;;13.05;93.07
15932;BME280;8065;49.520;11.284;2022-10-12T06:47:25;98240.50;;;13.03;92.84
15932;BME280;8065;49.520;11.284;2022-10-12T06:49:52;98246.31;;;13.05;92.84
15932;BME280;8065;49.520;11.284;2022-10-12T06:52:19;98245.53;;;13.13;92.62
15932;BME280;8065;49.520;11.284;2022-10-12T06:54:45;98240.97;;;13.05;92.64
15932;BME280;8065;49.520;11.284;2022-10-12T06:57:12;98240.22;;;13.22;92.21
15932;BME280;8065;49.520;11.284;2022-10-12T06:59:38;98249.16;;;13.18;91.98
15932;BME280;8065;49.520;11.284;2022-10-12T07:02:05;98247.09;;;13.06;92.65
15932;BME280;8065;49.520;11.284;2022-10-12T07:04:31;98251.66;;;13.14;92.45
15932;BME280;8065;49.520;11.284;2022-10-12T07:06:59;98258.28;;;13.17;92.23
15932;BME280;8065;49.520;11.284;2022-10-12T07:09:25;98254.03;;;13.24;92.19
15932;BME280;8065;49.520;11.284;2022-10-12T07:11:52;98253.72;;;13.17;93.04
15932;BME280;8065;49.520;11.284;2022-10-12T07:14:19;98251.19;;;13.29;92.59
15932;BME280;8065;49.520;11.284;2022-10-12T07:16:45;98249.31;;;13.38;92.61
15932;BME280;8065;49.520;11.284;2022-10-12T07:19:12;98257.63;;;13.37;92.40
15932;BME280;8065;49.520;11.284;2022-10-12T07:21:38;98260.59;;;13.53;92.13
15932;BME280;8065;49.520;11.284;2022-10-12T07:24:10;98256.47;;;13.72;91.16
15932;BME280;8065;49.520;11.284;2022-10-12T07:26:37;98261.94;;;13.85;90.61
15932;BME280;8065;49.520;11.284;2022-10-12T07:29:04;98258.84;;;13.65;91.65
15932;BME280;8065;49.520;11.284;2022-10-12T07:31:30;98261.53;;;13.57;92.71
15932;BME280;8065;49.520;11.284;2022-10-12T07:33:57;98260.91;;;13.42;91.87
15932;BME280;8065;49.520;11.284;2022-10-12T07:36:23;98263.09;;;13.58;92.32
15932;BME280;8065;49.520;11.284;2022-10-12T07:38:50;98260.25;;;13.63;92.22
15932;BME280;8065;49.520;11.284;2022-10-12T07:41:18;98268.72;;;13.65;91.56
15932;BME280;8065;49.520;11.284;2022-10-12T07:43:44;98267.94;;;13.73;91.00
15932;BME280;8065;49.520;11.284;2022-10-12T07:46:11;98266.44;;;13.93;90.20
15932;BME280;8065;49.520;11.284;2022-10-12T07:48:37;98270.53;;;13.90;90.69
15932;BME280;8065;49.520;11.284;2022-10-12T07:51:07;98263.59;;;13.98;90.94
15932;BME280;8065;49.520;11.284;2022-10-12T07:53:35;98269.22;;;14.05;89.04
15932;BME280;8065;49.520;11.284;2022-10-12T07:56:03;98273.81;;;13.96;90.11
15932;BME280;8065;49.520;11.284;2022-10-12T07:58:32;98263.56;;;14.06;88.98
15932;BME280;8065;49.520;11.284;2022-10-12T08:01:03;98272.69;;;14.43;88.25
15932;BME280;8065;49.520;11.284;2022-10-12T08:03:30;98268.94;;;14.36;87.66
15932;BME280;8065;49.520;11.284;2022-10-12T08:05:56;98274.28;;;14.36;87.99
15932;BME280;8065;49.520;11.284;2022-10-12T08:08:23;98262.19;;;14.30;87.67
15932;BME280;8065;49.520;11.284;2022-10-12T08:10:49;98265.22;;;14.58;88.02
15932;BME280;8065;49.520;11.284;2022-10-12T08:13:16;98256.16;;;14.71;87.41
15932;BME280;8065;49.520;11.284;2022-10-12T08:15:49;98254.97;;;14.81;87.18
15932;BME280;8065;49.520;11.284;2022-10-12T08:18:15;98261.56;;;15.04;85.83
15932;BME280;8065;49.520;11.284;2022-10-12T08:20:42;98254.16;;;15.43;85.97
15932;BME280;8065;49.520;11.284;2022-10-12T08:23:08;98250.03;;;16.02;84.35
15932;BME280;8065;49.520;11.284;2022-10-12T08:25:34;98249.69;;;15.92;82.24
15932;BME280;8065;49.520;11.284;2022-10-12T08:28:02;98252.94;;;16.46;82.13
15932;BME280;8065;49.520;11.284;2022-10-12T08:30:28;98249.34;;;16.79;80.02
15932;BME280;8065;49.520;11.284;2022-10-12T08:32:56;98246.34;;;17.08;78.74
15932;BME280;8065;49.520;11.284;2022-10-12T08:35:23;98240.53;;;17.06;78.75
15932;BME280;8065;49.520;11.284;2022-10-12T08:37:49;98241.66;;;17.05;77.70
15932;BME280;8065;49.520;11.284;2022-10-12T08:40:18;98247.13;;;17.09;77.80
15932;BME280;8065;49.520;11.284;2022-10-12T08:42:53;98238.09;;;17.73;75.36
15932;BME280;8065;49.520;11.284;2022-10-12T08:45:28;98233.00;;;18.15;74.42
15932;BME280;8065;49.520;11.284;2022-10-12T08:47:59;98232.72;;;18.20;74.22
15932;BME280;8065;49.520;11.284;2022-10-12T08:50:33;98237.75;;;18.06;73.86
15932;BME280;8065;49.520;11.284;2022-10-12T08:53:04;98228.53;;;18.22;74.96
15932;BME280;8065;49.520;11.284;2022-10-12T08:55:38;98231.16;;;18.70;74.05
15932;BME280;8065;49.520;11.284;2022-10-12T08:58:13;98230.44;;;19.11;72.99
15932;BME280;8065;49.520;11.284;2022-10-12T09:00:40;98225.25;;;19.60;70.28
15932;BME280;8065;49.520;11.284;2022-10-12T09:03:14;98226.53;;;19.89;68.56
15932;BME280;8065;49.520;11.284;2022-10-12T09:05:48;98220.22;;;20.31;69.22
15932;BME280;8065;49.520;11.284;2022-10-12T09:08:25;98225.22;;;20.55;68.22
15932;BME280;8065;49.520;11.284;2022-10-12T09:10:58;98226.91;;;20.14;68.58
15932;BME280;8065;49.520;11.284;2022-10-12T09:13:38;98223.22;;;20.26;68.33
15932;BME280;8065;49.520;11.284;2022-10-12T09:16:18;98221.00;;;20.88;67.22
15932;BME280;8065;49.520;11.284;2022-10-12T09:18:49;98223.47;;;21.00;66.98
15932;BME280;8065;49.520;11.284;2022-10-12T09:21:19;98221.34;;;21.16;66.57
15932;BME280;8065;49.520;11.284;2022-10-12T09:23:46;98227.34;;;21.03;66.81
15932;BME280;8065;49.520;11.284;2022-10-12T09:26:15;98221.91;;;20.99;65.71
15932;BME280;8065;49.520;11.284;2022-10-12T09:28:44;98219.69;;;21.08;66.07
15932;BME280;8065;49.520;11.284;2022-10-12T09:31:31;98223.09;;;21.32;66.27
15932;BME280;8065;49.520;11.284;2022-10-12T09:34:05;98228.56;;;21.39;66.49
15932;BME280;8065;49.520;11.284;2022-10-12T09:36:35;98224.28;;;21.78;64.50
15932;BME280;8065;49.520;11.284;2022-10-12T09:39:05;98229.47;;;21.94;63.99
15932;BME280;8065;49.520;11.284;2022-10-12T09:41:35;98228.28;;;21.91;65.40
15932;BME280;8065;49.520;11.284;2022-10-12T09:44:04;98231.81;;;21.55;66.10
15932;BME280;8065;49.520;11.284;2022-10-12T09:46:37;98234.22;;;21.64;65.05
15932;BME280;8065;49.520;11.284;2022-10-12T09:49:06;98226.25;;;22.26;64.30
15932;BME280;8065;49.520;11.284;2022-10-12T09:51:33;98227.13;;;22.40;64.13
15932;BME280;8065;49.520;11.284;2022-10-12T09:54:01;98217.59;;;22.71;62.62
15932;BME280;8065;49.520;11.284;2022-10-12T09:56:33;98218.69;;;22.56;63.57
15932;BME280;8065;49.520;11.284;2022-10-12T09:59:06;98208.97;;;23.42;62.33
15932;BME280;8065;49.520;11.284;2022-10-12T10:01:33;98210.59;;;23.78;61.38
15932;BME280;8065;49.520;11.284;2022-10-12T10:04:11;98217.56;;;23.58;60.04
15932;BME280;8065;49.520;11.284;2022-10-12T10:06:41;98212.16;;;24.04;59.49
15932;BME280;8065;49.520;11.284;2022-10-12T10:09:25;98216.03;;;23.93;60.19
15932;BME280;8065;49.520;11.284;2022-10-12T10:11:52;98214.47;;;23.70;60.53
15932;BME280;8065;49.520;11.284;2022-10-12T10:14:19;98216.00;;;23.64;60.49
15932;BME280;8065;49.520;11.284;2022-10-12T10:16:47;98210.59;;;24.14;60.39
15932;BME280;8065;49.520;11.284;2022-10-12T10:19:17;98207.41;;;23.41;61.72
15932;BME280;8065;49.520;11.284;2022-10-12T10:21:45;98209.06;;;23.84;60.51
15932;BME280;8065;49.520;11.284;2022-10-12T10:24:23;98212.03;;;23.19;62.81
15932;BME280;8065;49.520;11.284;2022-10-12T10:26:52;98212.53;;;22.63;64.11
15932;BME280;8065;49.520;11.284;2022-10-12T10:29:29;98213.63;;;23.38;62.49
15932;BME280;8065;49.520;11.284;2022-10-12T10:32:14;98208.28;;;23.88;60.49
15932;BME280;8065;49.520;11.284;2022-10-12T10:34:59;98205.56;;;24.19;60.49
15932;BME280;8065;49.520;11.284;2022-10-12T10:37:25;98207.50;;;23.76;61.57
15932;BME280;8065;49.520;11.284;2022-10-12T10:39:53;98208.91;;;23.10;61.32
15932;BME280;8065;49.520;11.284;2022-10-12T10:42:24;98198.97;;;23.78;60.58
15932;BME280;8065;49.520;11.284;2022-10-12T10:44:57;98196.59;;;24.47;59.48
15932;BME280;8065;49.520;11.284;2022-10-12T10:47:24;98202.81;;;24.34;60.60
15932;BME280;8065;49.520;11.284;2022-10-12T10:49:55;98198.19;;;23.63;60.39
15932;BME280;8065;49.520;11.284;2022-10-12T10:52:25;98198.97;;;23.67;61.52
15932;BME280;8065;49.520;11.284;2022-10-12T10:55:20;98202.06;;;23.69;62.01
15932;BME280;8065;49.520;11.284;2022-10-12T10:57:56;98199.75;;;23.96;60.97
15932;BME280;8065;49.520;11.284;2022-10-12T11:00:24;98195.78;;;23.47;60.65
15932;BME280;8065;49.520;11.284;2022-10-12T11:02:54;98198.88;;;23.42;61.35
15932;BME280;8065;49.520;11.284;2022-10-12T11:05:24;98198.13;;;22.44;62.74
15932;BME280;8065;49.520;11.284;2022-10-12T11:07:53;98202.25;;;22.24;63.42
15932;BME280;8065;49.520;11.284;2022-10-12T11:10:24;98197.47;;;22.03;64.27
15932;BME280;8065;49.520;11.284;2022-10-12T11:12:56;98187.50;;;22.14;64.21
15932;BME280;8065;49.520;11.284;2022-10-12T11:15:25;98189.91;;;22.30;64.81
15932;BME280;8065;49.520;11.284;2022-10-12T11:17:59;98184.63;;;22.55;63.41
15932;BME280;8065;49.520;11.284;2022-10-12T11:20:38;98184.94;;;22.39;64.41
15932;BME280;8065;49.520;11.284;2022-10-12T11:23:16;98182.19;;;22.32;64.87
15932;BME280;8065;49.520;11.284;2022-10-12T11:25:48;98182.06;;;22.11;65.80
15932;BME280;8065;49.520;11.284;2022-10-12T11:28:19;98179.88;;;22.31;65.10
15932;BME280;8065;49.520;11.284;2022-10-12T11:30:48;98177.22;;;22.41;63.59
15932;BME280;8065;49.520;11.284;2022-10-12T11:33:20;98163.94;;;22.98;62.06
15932;BME280;8065;49.520;11.284;2022-10-12T11:35:49;98174.47;;;22.34;62.82
15932;BME280;8065;49.520;11.284;2022-10-12T11:38:20;98166.25;;;22.96;61.76
15932;BME280;8065;49.520;11.284;2022-10-12T11:40:51;98170.09;;;22.88;62.38
15932;BME280;8065;49.520;11.284;2022-10-12T11:43:21;98162.78;;;23.03;61.56
15932;BME280;8065;49.520;11.284;2022-10-12T11:45:51;98154.41;;;22.46;63.08
15932;BME280;8065;49.520;11.284;2022-10-12T11:48:21;98161.41;;;22.50;63.74
15932;BME280;8065;49.520;11.284;2022-10-12T11:50:50;98160.47;;;22.21;63.93
15932;BME280;8065;49.520;11.284;2022-10-12T11:53:20;98158.44;;;22.80;62.30
15932;BME280;8065;49.520;11.284;2022-10-12T11:56:00;98151.50;;;22.83;61.88
15932;BME280;8065;49.520;11.284;2022-10-12T11:58:31;98141.47;;;22.94;62.74
15932;BME280;8065;49.520;11.284;2022-10-12T12:01:07;98144.66;;;23.32;62.41
15932;BME280;8065;49.520;11.284;2022-10-12T12:04:02;98135.38;;;23.75;61.42
15932;BME280;8065;49.520;11.284;2022-10-12T12:06:53;98141.53;;;23.33;61.85
15932;BME280;8065;49.520;11.284;2022-10-12T12:09:35;98133.00;;;23.42;61.25
15932;BME280;8065;49.520;11.284;2022-10-12T12:12:24;98131.50;;;23.55;62.57
15932;BME280;8065;49.520;11.284;2022-10-12T12:15:05;98128.38;;;23.89;62.08
15932;BME280;8065;49.520;11.284;2022-10-12T12:17:34;98122.88;;;24.31;59.28
15932;BME280;8065;49.520;11.284;2022-10-12T12:20:02;98133.03;;;23.92;59.42
15932;BME280;8065;49.520;11.284;2022-10-12T12:22:36;98123.69;;;24.14;59.25
15932;BME280;8065;49.520;11.284;2022-10-12T12:25:27;98115.13;;;24.30;60.16
15932;BME280;8065;49.520;11.284;2022-10-12T12:27:56;98119.00;;;24.25;59.29
15932;BME280;8065;49.520;11.284;2022-10-12T12:30:33;98123.22;;;24.47;58.54
15932;BME280;8065;49.520;11.284;2022-10-12T12:33:03;98121.19;;;24.66;58.12
15932;BME280;8065;49.520;11.284;2022-10-12T12:35:35;98131.44;;;24.12;58.74
15932;BME280;8065;49.520;11.284;2022-10-12T12:38:17;98121.53;;;24.75;57.75
15932;BME280;8065;49.520;11.284;2022-10-12T12:40:56;98125.75;;;24.87;57.84
15932;BME280;8065;49.520;11.284;2022-10-12T12:43:54;98121.28;;;25.25;56.41
15932;BME280;8065;49.520;11.284;2022-10-12T12:46:24;98116.78;;;25.52;57.36
15932;BME280;8065;49.520;11.284;2022-10-12T12:48:59;98120.28;;;24.97;55.47
15932;BME280;8065;49.520;11.284;2022-10-12T12:51:35;98112.78;;;25.15;55.29
15932;BME280;8065;49.520;11.284;2022-10-12T12:54:06;98117.28;;;24.74;55.46
15932;BME280;8065;49.520;11.284;2022-10-12T12:56:40;98113.16;;;25.17;55.22
15932;BME280;8065;49.520;11.284;2022-10-12T12:59:34;98110.84;;;25.16;56.59
15932;BME280;8065;49.520;11.284;2022-10-12T13:02:22;98110.06;;;24.28;57.30
15932;BME280;8065;49.520;11.284;2022-10-12T13:08:07;98102.81;;;24.98;55.93
15932;BME280;8065;49.520;11.284;2022-10-12T13:10:46;98104.28;;;24.26;57.14
15932;BME280;8065;49.520;11.284;2022-10-12T13:13:33;98103.44;;;24.43;56.90
15932;BME280;8065;49.520;11.284;2022-10-12T13:16:13;98093.88;;;24.94;55.50
15932;BME280;8065;49.520;11.284;2022-10-12T13:18:51;98102.09;;;24.80;56.85
15932;BME280;8065;49.520;11.284;2022-10-12T13:21:23;98086.91;;;24.86;56.26